Time;durP1;ratioP1;P1;durP2;ratioP2;P2;SDS_P1;SDS_P2;PMS_P1;PMS_P2;Temp;Humidity;BMP_temperature;BMP_pressure;BME280_temperature;BME280_humidity;BME280_pressure;Samples;Min_cycle;Max_cycle;Signal;HPM_P1;HPM_P2
2023/04/19 00:00:40;;;;;;;1.30;1.30;;;11.60;99.90;;;;;;5097814;28;20197;-77
2023/04/19 00:03:06;;;;;;;1.63;1.63;;;11.60;99.90;;;;;;5106899;28;20176;-79
2023/04/19 00:05:32;;;;;;;2.20;2.10;;;11.70;99.90;;;;;;5101283;28;20630;-85
2023/04/19 00:07:58;;;;;;;2.17;2.07;;;11.70;99.90;;;;;;5095179;28;20167;-79
2023/04/19 00:10:24;;;;;;;1.80;1.70;;;11.60;99.90;;;;;;5095282;28;20178;-82
2023/04/19 00:12:50;;;;;;;2.23;2.00;;;11.70;99.90;;;;;;5095138;28;20177;-79
2023/04/19 00:15:15;;;;;;;1.90;1.80;;;11.60;99.90;;;;;;5096084;28;20537;-81
2023/04/19 00:17:41;;;;;;;1.90;1.80;;;11.60;99.90;;;;;;5098236;28;20176;-80
2023/04/19 00:20:09;;;;;;;2.00;1.83;;;11.60;99.90;;;;;;5095754;28;20261;-77
2023/04/19 00:22:35;;;;;;;2.30;2.10;;;11.50;99.90;;;;;;5095934;28;20181;-76
2023/04/19 00:25:01;;;;;;;2.00;1.90;;;11.60;99.90;;;;;;5096382;28;20665;-76
2023/04/19 00:27:27;;;;;;;2.07;1.97;;;11.60;99.90;;;;;;5095054;28;20261;-77
2023/04/19 00:29:52;;;;;;;2.20;2.10;;;11.60;99.90;;;;;;5096249;28;20207;-77
2023/04/19 00:32:18;;;;;;;3.27;2.20;;;11.60;99.90;;;;;;5094547;28;20257;-76
2023/04/19 00:34:44;;;;;;;2.03;1.93;;;11.60;99.90;;;;;;5094661;28;20582;-75
2023/04/19 00:37:10;;;;;;;2.10;2.00;;;11.50;99.90;;;;;;5094498;28;20181;-80
2023/04/19 00:39:36;;;;;;;2.00;1.90;;;11.40;99.90;;;;;;5094872;28;20212;-79
2023/04/19 00:42:02;;;;;;;3.70;1.83;;;11.50;99.90;;;;;;5094495;28;20202;-77
2023/04/19 00:44:27;;;;;;;2.10;2.00;;;11.50;99.90;;;;;;5094339;28;20273;-77
2023/04/19 00:46:55;;;;;;;2.07;1.90;;;11.50;99.90;;;;;;5094121;28;20196;-81
2023/04/19 00:49:22;;;;;;;1.90;1.80;;;11.50;99.90;;;;;;5094152;28;20222;-79
2023/04/19 00:51:52;;;;;;;2.93;1.93;;;11.50;99.90;;;;;;5094000;28;20165;-77
2023/04/19 00:54:19;;;;;;;2.10;2.00;;;11.50;99.90;;;;;;5094046;28;20526;-75
2023/04/19 00:56:45;;;;;;;2.37;1.90;;;11.50;99.90;;;;;;5093830;28;20228;-82
2023/04/19 00:59:13;;;;;;;1.93;1.83;;;11.50;99.90;;;;;;5092448;28;20234;-78
2023/04/19 01:01:39;;;;;;;1.97;1.87;;;11.50;99.90;;;;;;5092363;28;20205;-77
2023/04/19 01:04:05;;;;;;;2.23;2.03;;;11.50;99.90;;;;;;5093469;28;20181;-77
2023/04/19 01:06:32;;;;;;;1.83;1.73;;;11.60;99.90;;;;;;5093655;28;20177;-80
2023/04/19 01:08:58;;;;;;;2.27;2.13;;;11.60;99.90;;;;;;5093884;28;20177;-76
2023/04/19 01:11:24;;;;;;;1.70;1.70;;;11.60;99.90;;;;;;5095126;28;20177;-80
2023/04/19 01:13:50;;;;;;;1.97;1.87;;;11.50;99.90;;;;;;5095489;28;20173;-77
2023/04/19 01:16:16;;;;;;;1.70;1.70;;;11.50;99.90;;;;;;5093670;28;20675;-76
2023/04/19 01:18:42;;;;;;;1.77;1.67;;;11.50;99.90;;;;;;5093713;28;20185;-80
2023/04/19 01:21:08;;;;;;;1.80;1.70;;;11.50;99.90;;;;;;5093949;28;20210;-77
2023/04/19 01:23:34;;;;;;;2.03;1.93;;;11.50;99.90;;;;;;5095303;28;20625;-77
2023/04/19 01:26:03;;;;;;;1.77;1.70;;;11.40;99.90;;;;;;5093422;28;20177;-76
2023/04/19 01:28:29;;;;;;;2.03;1.93;;;11.40;99.90;;;;;;5093699;28;20180;-78
2023/04/19 01:30:54;;;;;;;2.17;2.07;;;11.30;99.90;;;;;;5093080;28;20189;-78
2023/04/19 01:33:21;;;;;;;1.67;1.67;;;11.30;99.90;;;;;;5093501;28;20641;-80
2023/04/19 01:35:47;;;;;;;2.00;1.90;;;11.30;99.90;;;;;;5093883;28;20224;-76
2023/04/19 01:38:14;;;;;;;1.97;1.87;;;11.40;99.90;;;;;;5098543;28;20237;-77
2023/04/19 01:40:39;;;;;;;2.67;1.87;;;11.40;99.90;;;;;;5093601;28;20216;-80
2023/04/19 01:43:06;;;;;;;3.53;1.80;;;11.30;99.90;;;;;;5093208;28;20669;-76
2023/04/19 01:45:33;;;;;;;1.87;1.77;;;11.40;99.90;;;;;;5092851;28;20184;-76
2023/04/19 01:48:03;;;;;;;1.90;1.80;;;11.30;99.90;;;;;;5091640;28;20175;-75
2023/04/19 01:50:32;;;;;;;1.70;1.60;;;11.40;99.90;;;;;;5093838;28;20164;-79
2023/04/19 01:52:59;;;;;;;2.20;2.10;;;11.40;99.90;;;;;;5091898;28;20178;-83
2023/04/19 01:55:25;;;;;;;1.73;1.70;;;11.40;99.90;;;;;;5092694;28;20183;-76
2023/04/19 01:57:54;;;;;;;1.93;1.83;;;11.40;99.90;;;;;;5092938;28;20577;-83
2023/04/19 02:00:21;;;;;;;3.27;1.70;;;11.30;99.90;;;;;;5097356;28;20279;-81
2023/04/19 02:02:47;;;;;;;1.77;1.73;;;11.30;99.90;;;;;;5099046;28;20515;-81
2023/04/19 02:05:13;;;;;;;2.27;2.17;;;11.40;99.90;;;;;;5094669;28;20181;-77
2023/04/19 02:07:38;;;;;;;2.03;1.93;;;11.30;99.90;;;;;;5092843;28;20184;-78
2023/04/19 02:10:08;;;;;;;1.80;1.70;;;11.30;99.90;;;;;;5092545;28;20206;-77
2023/04/19 02:12:34;;;;;;;2.30;2.10;;;11.30;99.90;;;;;;5092598;28;20166;-75
2023/04/19 02:15:03;;;;;;;2.03;1.93;;;11.30;99.90;;;;;;5091652;28;20172;-75
2023/04/19 02:17:29;;;;;;;1.97;1.70;;;11.10;99.90;;;;;;5091225;28;20653;-77
2023/04/19 02:19:55;;;;;;;1.73;1.63;;;11.30;99.90;;;;;;5092822;28;20217;-78
2023/04/19 02:22:20;;;;;;;3.43;2.13;;;9.50;99.90;;;;;;5093516;28;20216;-76
2023/04/19 02:24:48;;;;;;;3.53;2.10;;;11.20;99.90;;;;;;5093327;28;20167;-75
2023/04/19 02:27:14;;;;;;;2.00;1.90;;;11.20;99.90;;;;;;5092155;28;20182;-76
2023/04/19 02:29:40;;;;;;;2.30;2.20;;;11.20;99.90;;;;;;5092580;28;20167;-76
2023/04/19 02:32:06;;;;;;;2.47;1.90;;;11.10;99.90;;;;;;5092875;28;20682;-81
2023/04/19 02:34:32;;;;;;;2.50;2.40;;;11.20;99.90;;;;;;5093026;28;20177;-81
2023/04/19 02:36:58;;;;;;;2.30;2.20;;;11.10;99.90;;;;;;5092762;28;20198;-76
2023/04/19 02:39:24;;;;;;;2.20;2.10;;;11.10;99.90;;;;;;5092971;28;20209;-80
2023/04/19 02:41:50;;;;;;;2.37;2.13;;;11.00;99.90;;;;;;5095063;28;20703;-83
2023/04/19 02:44:15;;;;;;;2.37;2.27;;;10.90;99.90;;;;;;5096212;28;20172;-79
2023/04/19 02:46:47;;;;;;;3.17;2.80;;;10.90;99.90;;;;;;5092170;28;20575;-81
2023/04/19 02:49:12;;;;;;;2.80;2.60;;;11.00;99.90;;;;;;5092203;28;20158;-77
2023/04/19 02:51:38;;;;;;;3.50;2.50;;;10.90;99.90;;;;;;5090797;28;20181;-77
2023/04/19 02:54:04;;;;;;;2.27;2.17;;;10.90;99.90;;;;;;5090515;28;20246;-76
2023/04/19 02:56:30;;;;;;;2.40;2.30;;;10.90;99.90;;;;;;5090443;28;20268;-76
2023/04/19 02:58:59;;;;;;;2.70;2.50;;;10.80;99.90;;;;;;5090447;28;20414;-79
2023/04/19 03:01:25;;;;;;;2.67;2.50;;;10.80;99.90;;;;;;5090451;28;20223;-75
2023/04/19 03:03:51;;;;;;;3.10;2.43;;;10.70;99.90;;;;;;5090916;28;20231;-75
2023/04/19 03:06:17;;;;;;;2.60;2.40;;;10.70;99.90;;;;;;5090233;28;20176;-75
2023/04/19 03:08:43;;;;;;;2.77;2.57;;;10.80;99.90;;;;;;5091072;28;20182;-82
2023/04/19 03:11:10;;;;;;;6.93;2.70;;;10.80;99.90;;;;;;5092940;28;20256;-86
2023/04/19 03:13:36;;;;;;;4.47;2.67;;;10.70;99.90;;;;;;5092928;28;20170;-84
2023/04/19 03:16:05;;;;;;;3.73;2.90;;;10.70;99.90;;;;;;5097432;28;20673;-81
2023/04/19 03:18:32;;;;;;;2.93;2.73;;;10.60;99.90;;;;;;5095727;28;20625;-76
2023/04/19 03:20:57;;;;;;;3.00;2.80;;;10.60;99.90;;;;;;5095249;28;20665;-78
2023/04/19 03:23:24;;;;;;;3.00;2.80;;;10.50;99.90;;;;;;5101568;28;20253;-79
2023/04/19 03:25:50;;;;;;;3.23;3.03;;;10.40;99.90;;;;;;5094442;28;20672;-81
2023/04/19 03:28:16;;;;;;;2.93;2.73;;;10.30;99.90;;;;;;5096733;28;20172;-83
2023/04/19 03:30:42;;;;;;;3.27;3.07;;;10.30;99.90;;;;;;5095049;28;20185;-87
2023/04/19 03:33:07;;;;;;;3.20;3.00;;;10.40;99.90;;;;;;5098189;28;20185;-76
2023/04/19 03:35:33;;;;;;;2.87;2.57;;;10.30;99.90;;;;;;5101679;28;20178;-81
2023/04/19 03:37:59;;;;;;;3.03;2.83;;;10.40;99.90;;;;;;5096541;28;20177;-82
2023/04/19 03:40:24;;;;;;;3.00;2.80;;;10.50;99.90;;;;;;5096045;28;20220;-80
2023/04/19 03:42:50;;;;;;;3.27;3.07;;;10.50;99.90;;;;;;5095946;28;20250;-79
2023/04/19 03:45:16;;;;;;;3.40;2.97;;;10.50;99.90;;;;;;5095734;28;20269;-82
2023/04/19 03:47:42;;;;;;;3.40;3.10;;;10.50;99.90;;;;;;5095768;28;20175;-85
2023/04/19 03:50:08;;;;;;;2.87;2.67;;;10.40;99.90;;;;;;5094565;28;20182;-83
2023/04/19 03:52:34;;;;;;;3.40;3.10;;;10.30;99.90;;;;;;5099965;28;20525;-82
2023/04/19 03:54:59;;;;;;;3.43;3.20;;;10.20;99.90;;;;;;5098336;28;20180;-81
2023/04/19 03:57:25;;;;;;;2.97;2.77;;;10.10;99.90;;;;;;5096772;28;20217;-83
2023/04/19 03:59:51;;;;;;;3.50;3.30;;;10.10;99.90;;;;;;5100036;28;20176;-81
2023/04/19 04:02:17;;;;;;;3.40;3.13;;;10.00;99.90;;;;;;5098988;28;20686;-80
2023/04/19 04:04:42;;;;;;;3.50;3.20;;;10.00;99.90;;;;;;5099524;28;20190;-76
2023/04/19 04:07:08;;;;;;;3.30;3.00;;;9.90;99.90;;;;;;5095402;28;20597;-78
2023/04/19 04:09:34;;;;;;;3.10;2.90;;;9.80;99.90;;;;;;5094959;28;20167;-77
2023/04/19 04:11:59;;;;;;;3.13;2.93;;;9.80;99.90;;;;;;5094871;28;20507;-79
2023/04/19 04:14:25;;;;;;;2.80;2.60;;;9.80;99.90;;;;;;5093313;28;20561;-77
2023/04/19 04:16:51;;;;;;;3.23;3.00;;;9.70;99.90;;;;;;5095525;28;20178;-76
2023/04/19 04:19:17;;;;;;;2.83;2.67;;;9.60;99.90;;;;;;5096454;28;20169;-77
2023/04/19 04:21:43;;;;;;;3.33;3.03;;;9.50;99.90;;;;;;5094755;28;21023;-78
2023/04/19 04:24:08;;;;;;;3.57;3.23;;;9.40;99.90;;;;;;5094443;28;20171;-77
2023/04/19 04:26:38;;;;;;;3.13;2.93;;;9.30;99.90;;;;;;5094506;28;20246;-81
2023/04/19 04:29:04;;;;;;;2.90;2.70;;;9.30;99.90;;;;;;5094497;28;20182;-79
2023/04/19 04:31:30;;;;;;;3.50;3.20;;;9.30;99.90;;;;;;5094815;28;20181;-77
2023/04/19 04:33:56;;;;;;;3.00;2.80;;;9.30;99.90;;;;;;5094304;28;20622;-76
2023/04/19 04:36:22;;;;;;;3.27;2.97;;;9.30;99.90;;;;;;5094305;28;20322;-80
2023/04/19 04:38:48;;;;;;;3.87;3.00;;;9.40;99.90;;;;;;5093591;28;20178;-80
2023/04/19 04:41:15;;;;;;;3.43;3.13;;;9.40;99.90;;;;;;5094370;28;20206;-80
2023/04/19 04:43:44;;;;;;;3.43;3.13;;;9.30;99.90;;;;;;5095404;28;20677;-75
2023/04/19 04:46:10;;;;;;;3.80;3.07;;;9.30;99.90;;;;;;5094189;28;20258;-78
2023/04/19 04:48:35;;;;;;;3.13;2.90;;;9.40;99.90;;;;;;5093128;28;20273;-84
2023/04/19 04:51:01;;;;;;;3.40;3.10;;;9.40;99.90;;;;;;5095027;28;20178;-78
2023/04/19 04:53:27;;;;;;;4.77;3.50;;;9.30;99.90;;;;;;5096075;28;20174;-81
2023/04/19 04:55:55;;;;;;;3.50;3.20;;;9.40;99.90;;;;;;5097995;28;20217;-76
2023/04/19 04:58:21;;;;;;;3.27;3.00;;;9.40;99.90;;;;;;5095728;28;20368;-78
2023/04/19 05:00:47;;;;;;;3.13;2.87;;;9.50;99.90;;;;;;5096028;28;20301;-77
2023/04/19 05:03:14;;;;;;;3.93;3.17;;;9.60;99.90;;;;;;5096771;28;20170;-83
2023/04/19 05:05:40;;;;;;;4.30;3.33;;;9.70;99.90;;;;;;5094780;28;20184;-82
2023/04/19 05:08:06;;;;;;;3.23;3.00;;;9.80;99.90;;;;;;5097479;28;20533;-80
2023/04/19 05:10:31;;;;;;;2.90;2.70;;;9.80;99.90;;;;;;5099110;28;20179;-86
2023/04/19 05:12:57;;;;;;;3.57;3.27;;;9.80;99.90;;;;;;5097080;28;20170;-78
2023/04/19 05:15:23;;;;;;;2.87;2.60;;;9.80;99.90;;;;;;5094189;28;20181;-85
2023/04/19 05:17:49;;;;;;;3.20;2.90;;;10.00;99.90;;;;;;5095670;28;20171;-87
2023/04/19 05:20:15;;;;;;;3.50;3.20;;;10.10;99.90;;;;;;5094489;28;20182;-77
2023/04/19 05:22:40;;;;;;;4.47;3.23;;;10.10;99.90;;;;;;5099431;28;20234;-78
2023/04/19 05:25:06;;;;;;;3.87;3.23;;;10.20;99.90;;;;;;5094974;28;20168;-82
2023/04/19 05:27:32;;;;;;;3.73;3.43;;;10.30;99.90;;;;;;5094751;28;20178;-76
2023/04/19 05:29:58;;;;;;;4.13;3.73;;;10.40;99.90;;;;;;5095205;28;20175;-78
2023/04/19 05:32:24;;;;;;;4.23;3.27;;;10.50;99.90;;;;;;5094817;28;20279;-78
2023/04/19 05:34:49;;;;;;;3.87;3.10;;;10.60;99.90;;;;;;5094583;28;20178;-79
2023/04/19 05:37:15;;;;;;;3.80;3.43;;;10.70;99.90;;;;;;5094677;28;20172;-81
2023/04/19 05:39:40;;;;;;;4.60;3.47;;;10.70;99.90;;;;;;5093719;28;20694;-79
2023/04/19 05:42:06;;;;;;;3.73;3.43;;;10.80;99.90;;;;;;5092225;28;20259;-80
2023/04/19 05:44:32;;;;;;;6.07;3.40;;;10.90;99.90;;;;;;5092044;28;20648;-75
2023/04/19 05:46:58;;;;;;;3.70;3.30;;;11.00;99.90;;;;;;5093144;28;20253;-80
2023/04/19 05:49:24;;;;;;;3.97;3.60;;;11.20;99.90;;;;;;5097127;28;20573;-79
2023/04/19 05:51:50;;;;;;;5.40;3.43;;;11.40;99.90;;;;;;5096960;28;20168;-79
2023/04/19 05:54:16;;;;;;;4.67;3.53;;;11.60;99.90;;;;;;5093846;28;20171;-77
2023/04/19 05:56:41;;;;;;;3.30;3.00;;;11.70;99.90;;;;;;5092173;28;20220;-81
2023/04/19 05:59:07;;;;;;;3.27;3.07;;;11.80;99.90;;;;;;5093333;28;20266;-78
2023/04/19 06:01:34;;;;;;;3.40;3.00;;;11.90;99.90;;;;;;5094805;28;20208;-77
2023/04/19 06:04:00;;;;;;;2.77;2.67;;;12.00;99.60;;;;;;5092925;28;20701;-77
2023/04/19 06:06:26;;;;;;;3.00;2.80;;;12.10;99.30;;;;;;5092272;28;20328;-76
2023/04/19 06:08:52;;;;;;;3.23;3.00;;;12.20;99.40;;;;;;5092377;28;20177;-76
2023/04/19 06:11:17;;;;;;;3.93;3.50;;;12.20;99.10;;;;;;5092622;28;20202;-79
2023/04/19 06:13:43;;;;;;;6.20;3.20;;;12.30;99.10;;;;;;5093310;28;20205;-78
2023/04/19 06:16:09;;;;;;;3.23;3.03;;;12.20;99.10;;;;;;5094539;28;20207;-76
2023/04/19 06:18:35;;;;;;;3.40;3.10;;;12.30;99.10;;;;;;5094289;28;20168;-75
2023/04/19 06:21:01;;;;;;;4.47;3.47;;;12.40;99.10;;;;;;5092905;28;20211;-80
2023/04/19 06:23:27;;;;;;;3.10;2.90;;;12.40;99.00;;;;;;5092963;28;20167;-78
2023/04/19 06:25:53;;;;;;;3.73;3.00;;;12.40;99.00;;;;;;5091276;28;20185;-85
2023/04/19 06:28:18;;;;;;;3.57;3.27;;;12.40;99.10;;;;;;5092458;28;20673;-77
2023/04/19 06:30:44;;;;;;;3.30;3.10;;;12.50;98.50;;;;;;5091422;28;20171;-78
2023/04/19 06:33:10;;;;;;;3.53;3.30;;;12.50;98.70;;;;;;5091243;28;20170;-79
2023/04/19 06:35:36;;;;;;;3.60;3.30;;;12.50;98.60;;;;;;5098704;28;20185;-81
2023/04/19 06:38:02;;;;;;;3.63;3.33;;;12.60;98.20;;;;;;5095286;28;20158;-75
2023/04/19 06:40:28;;;;;;;3.40;3.20;;;12.60;98.10;;;;;;5096659;28;20641;-77
2023/04/19 06:42:54;;;;;;;3.33;3.00;;;12.60;97.80;;;;;;5096997;28;20170;-76
2023/04/19 06:45:20;;;;;;;3.30;3.10;;;12.60;97.80;;;;;;5075306;28;20194;-76
2023/04/19 06:47:46;;;;;;;3.90;3.60;;;12.60;97.70;;;;;;5072263;28;20175;-79
2023/04/19 06:50:12;;;;;;;4.83;2.90;;;12.60;97.70;;;;;;5072140;28;20190;-79
2023/04/19 06:52:38;;;;;;;2.63;2.43;;;12.70;97.80;;;;;;5071679;28;20191;-77
2023/04/19 06:55:07;;;;;;;3.00;2.80;;;12.80;97.40;;;;;;5072095;28;20178;-79
2023/04/19 06:57:33;;;;;;;3.00;2.80;;;12.90;97.60;;;;;;5071638;28;20160;-80
2023/04/19 06:59:59;;;;;;;5.90;2.93;;;13.00;97.50;;;;;;5071935;28;20536;-82
2023/04/19 07:02:24;;;;;;;3.57;3.30;;;13.10;97.10;;;;;;5076129;28;20745;-79
2023/04/19 07:04:50;;;;;;;3.80;3.27;;;13.20;96.90;;;;;;5076066;28;20171;-83
2023/04/19 07:07:16;;;;;;;4.33;3.00;;;13.60;97.00;;;;;;5076269;28;20180;-78
2023/04/19 07:09:42;;;;;;;3.20;3.00;;;13.30;96.60;;;;;;5076314;28;20171;-80
2023/04/19 07:12:07;;;;;;;3.83;3.13;;;13.40;96.40;;;;;;5075841;28;20604;-79
2023/04/19 07:14:33;;;;;;;4.80;3.50;;;13.60;96.10;;;;;;5075480;28;20171;-82
2023/04/19 07:16:59;;;;;;;3.50;3.30;;;15.20;96.70;;;;;;5073718;28;20597;-76
2023/04/19 07:19:27;;;;;;;3.80;3.50;;;13.50;96.00;;;;;;5076085;28;20273;-81
2023/04/19 07:21:52;;;;;;;3.33;3.13;;;13.60;96.10;;;;;;5087182;28;20206;-76
2023/04/19 07:24:18;;;;;;;4.70;3.40;;;13.70;95.70;;;;;;5086767;28;20182;-81
2023/04/19 07:26:44;;;;;;;4.07;3.00;;;13.70;95.70;;;;;;5078100;28;20582;-76
2023/04/19 07:29:10;;;;;;;3.23;3.03;;;13.70;95.00;;;;;;5074150;28;20183;-79
2023/04/19 07:31:35;;;;;;;3.00;2.80;;;13.60;95.50;;;;;;5074053;28;20197;-82
2023/04/19 07:34:01;;;;;;;3.20;2.87;;;13.70;95.60;;;;;;5075981;28;20265;-82
2023/04/19 07:36:27;;;;;;;3.50;3.20;;;13.80;95.50;;;;;;5076373;28;20183;-80
2023/04/19 07:38:53;;;;;;;2.70;2.60;;;13.90;95.50;;;;;;5076355;28;20652;-81
2023/04/19 07:41:18;;;;;;;3.10;2.90;;;13.90;95.20;;;;;;5075590;28;20203;-84
2023/04/19 07:43:44;;;;;;;3.80;2.97;;;14.10;95.10;;;;;;5074230;28;20171;-82
2023/04/19 07:46:15;;;;;;;3.23;3.00;;;14.30;94.60;;;;;;5075297;28;20177;-79
2023/04/19 07:48:41;;;;;;;2.70;2.60;;;14.30;94.60;;;;;;5074414;28;20626;-87
2023/04/19 07:51:22;;;;;;;3.37;3.10;;;14.40;94.30;;;;;;5075745;28;20185;-84
2023/04/19 07:53:49;;;;;;;3.37;2.80;;;14.50;93.60;;;;;;5074792;28;20687;-80
2023/04/19 07:56:15;;;;;;;3.00;2.80;;;14.60;94.00;;;;;;5075140;28;20168;-85
2023/04/19 07:58:40;;;;;;;3.53;3.03;;;14.70;93.50;;;;;;5075757;28;20310;-83
2023/04/19 08:01:06;;;;;;;2.77;2.57;;;14.70;93.40;;;;;;5075452;28;20211;-85
2023/04/19 08:03:36;;;;;;;2.87;2.67;;;14.80;92.90;;;;;;5085755;28;20222;-84
2023/04/19 08:06:04;;;;;;;3.40;3.00;;;14.90;93.00;;;;;;5109895;28;20593;-82
2023/04/19 08:08:30;;;;;;;3.07;2.67;;;14.80;92.90;;;;;;5074670;28;20200;-80
2023/04/19 08:10:56;;;;;;;3.00;2.90;;;14.90;92.40;;;;;;5077344;28;20175;-77
2023/04/19 08:13:22;;;;;;;3.03;2.83;;;14.90;92.40;;;;;;5073972;28;20186;-75
2023/04/19 08:15:48;;;;;;;2.97;2.77;;;15.10;92.40;;;;;;5075896;28;20182;-75
2023/04/19 08:18:13;;;;;;;2.63;2.43;;;15.10;91.90;;;;;;5075975;28;20168;-80
2023/04/19 08:20:41;;;;;;;2.93;2.80;;;15.30;91.70;;;;;;5074085;28;20199;-81
2023/04/19 08:23:07;;;;;;;4.50;2.90;;;15.10;91.50;;;;;;5073171;28;20194;-78
2023/04/19 08:25:33;;;;;;;4.23;3.93;;;15.20;92.10;;;;;;5074240;28;20171;-77
2023/04/19 08:28:00;;;;;;;3.40;3.10;;;15.30;91.90;;;;;;5072707;28;20271;-79
2023/04/19 08:30:26;;;;;;;4.17;3.03;;;15.30;92.00;;;;;;5106849;28;20696;-79
2023/04/19 08:32:52;;;;;;;2.93;2.73;;;15.40;91.40;;;;;;5072749;28;20179;-78
2023/04/19 08:35:19;;;;;;;4.20;3.17;;;15.40;91.70;;;;;;5072602;28;20642;-76
2023/04/19 08:37:46;;;;;;;4.00;3.07;;;15.50;91.80;;;;;;5055433;28;20531;-76
2023/04/19 08:40:13;;;;;;;3.20;2.87;;;15.40;91.50;;;;;;5072333;28;20222;-77
2023/04/19 08:42:39;;;;;;;2.53;2.43;;;15.30;91.70;;;;;;5072561;28;20667;-78
2023/04/19 08:45:06;;;;;;;3.27;2.77;;;15.40;91.60;;;;;;5072379;28;20270;-78
2023/04/19 08:47:33;;;;;;;2.80;2.60;;;15.40;91.30;;;;;;5073655;28;20193;-77
2023/04/19 08:50:06;;;;;;;3.07;2.87;;;15.40;91.40;;;;;;5073263;28;20183;-77
2023/04/19 08:52:34;;;;;;;2.97;2.67;;;15.20;91.40;;;;;;5072856;28;20542;-82
2023/04/19 08:55:03;;;;;;;2.97;2.77;;;15.20;91.20;;;;;;5073644;28;20180;-81
2023/04/19 08:57:32;;;;;;;3.07;2.80;;;15.30;91.60;;;;;;5072774;28;20289;-81
2023/04/19 09:00:07;;;;;;;3.20;3.00;;;15.40;90.90;;;;;;5072328;28;20198;-83
2023/04/19 09:02:46;;;;;;;2.87;2.70;;;15.60;91.00;;;;;;5072514;28;20259;-79
2023/04/19 09:05:14;;;;;;;4.30;2.70;;;15.80;91.40;;;;;;5072236;28;20215;-79
2023/04/19 09:07:41;;;;;;;3.00;2.80;;;16.00;90.90;;;;;;5072579;28;20671;-78
2023/04/19 09:10:11;;;;;;;3.00;2.67;;;16.20;91.10;;;;;;5072313;28;20179;-75
2023/04/19 09:12:38;;;;;;;3.00;2.80;;;16.40;90.40;;;;;;5073728;28;20216;-83
2023/04/19 09:15:07;;;;;;;4.73;2.90;;;16.70;89.70;;;;;;5078841;28;20188;-80
2023/04/19 09:17:37;;;;;;;2.93;2.73;;;16.70;90.00;;;;;;5084404;28;20183;-76
2023/04/19 09:20:05;;;;;;;2.70;2.60;;;16.70;90.40;;;;;;5074324;28;20180;-76
2023/04/19 09:22:32;;;;;;;2.87;2.67;;;16.50;89.60;;;;;;5073477;28;20307;-77
2023/04/19 09:24:59;;;;;;;2.63;2.50;;;16.60;88.20;;;;;;5072856;28;20187;-77
2023/04/19 09:27:29;;;;;;;2.77;2.57;;;16.50;88.80;;;;;;5073622;28;20296;-75
2023/04/19 09:29:56;;;;;;;3.17;2.97;;;16.60;89.40;;;;;;5072449;28;20171;-82
2023/04/19 09:32:23;;;;;;;2.77;2.63;;;16.70;89.30;;;;;;5072003;28;20179;-79
2023/04/19 09:34:55;;;;;;;3.00;2.80;;;16.80;89.50;;;;;;5073750;28;20177;-77
2023/04/19 09:37:22;;;;;;;11.17;3.33;;;17.00;90.10;;;;;;5078756;28;20210;-82
2023/04/19 09:39:48;;;;;;;7.47;3.33;;;17.20;88.30;;;;;;5074350;28;20168;-79
2023/04/19 09:42:14;;;;;;;3.50;3.17;;;17.20;88.10;;;;;;5073486;28;20218;-76
2023/04/19 09:44:39;;;;;;;4.50;3.17;;;17.40;89.00;;;;;;5072882;28;20202;-76
2023/04/19 09:47:22;;;;;;;2.83;2.63;;;17.40;87.70;;;;;;5075055;28;20546;-86
2023/04/19 09:50:03;;;;;;;3.23;2.97;;;17.10;87.30;;;;;;5073764;28;20183;-80
2023/04/19 09:52:30;;;;;;;7.27;3.60;;;17.00;88.20;;;;;;5073066;28;20215;-77
2023/04/19 09:55:00;;;;;;;3.30;3.00;;;16.90;87.70;;;;;;5073525;28;20171;-76
2023/04/19 09:57:25;;;;;;;3.17;2.97;;;17.00;88.10;;;;;;5075501;28;20183;-75
2023/04/19 09:59:51;;;;;;;4.83;2.90;;;17.20;88.50;;;;;;5072447;28;20242;-76
2023/04/19 10:02:18;;;;;;;33.70;5.70;;;17.50;88.50;;;;;;5072601;28;20561;-76
2023/04/19 10:04:45;;;;;;;12.30;3.90;;;17.70;87.90;;;;;;5074018;28;20199;-75
2023/04/19 10:07:11;;;;;;;3.67;3.10;;;17.80;88.60;;;;;;5073878;28;20184;-81
2023/04/19 10:09:38;;;;;;;3.00;2.80;;;17.90;85.80;;;;;;5071655;28;20278;-75
2023/04/19 10:12:06;;;;;;;3.80;2.80;;;17.80;86.40;;;;;;5073247;28;20217;-78
2023/04/19 10:14:35;;;;;;;4.10;3.00;;;17.50;87.90;;;;;;5072994;28;20202;-81
2023/04/19 10:17:01;;;;;;;4.90;3.10;;;17.30;88.70;;;;;;5071543;28;20261;-84
2023/04/19 10:19:28;;;;;;;4.17;3.77;;;17.10;88.30;;;;;;5073140;28;20171;-85
2023/04/19 10:21:55;;;;;;;4.10;3.03;;;16.80;86.10;;;;;;5070979;28;20213;-76
2023/04/19 10:24:22;;;;;;;3.43;3.13;;;16.40;86.60;;;;;;5072970;28;20627;-80
2023/04/19 10:27:06;;;;;;;3.10;2.90;;;16.20;87.80;;;;;;5071085;28;20178;-81
2023/04/19 10:29:50;;;;;;;3.67;3.23;;;16.10;87.30;;;;;;5072789;28;20179;-82
2023/04/19 10:32:16;;;;;;;3.70;3.40;;;15.80;90.00;;;;;;5071316;28;20171;-75
2023/04/19 10:34:42;;;;;;;3.27;3.07;;;15.60;90.70;;;;;;5072010;28;20175;-80
2023/04/19 10:37:13;;;;;;;3.43;3.13;;;15.50;90.60;;;;;;5070112;28;20179;-77
2023/04/19 10:39:40;;;;;;;4.40;3.07;;;15.30;90.90;;;;;;5072116;28;20199;-78
2023/04/19 10:42:06;;;;;;;4.23;3.10;;;15.20;90.90;;;;;;5071860;28;20221;-76
2023/04/19 10:44:31;;;;;;;3.80;3.50;;;15.10;91.30;;;;;;5076195;28;20171;-77
2023/04/19 10:47:00;;;;;;;3.90;3.50;;;15.20;91.80;;;;;;5072579;28;20224;-79
2023/04/19 10:49:30;;;;;;;4.50;4.10;;;15.10;92.40;;;;;;5072228;28;20179;-75
2023/04/19 10:51:58;;;;;;;4.23;3.73;;;15.00;92.90;;;;;;5072032;28;20563;-76
2023/04/19 10:54:36;;;;;;;3.97;3.67;;;15.00;93.20;;;;;;5072170;28;20638;-75
2023/04/19 10:57:04;;;;;;;4.60;4.20;;;15.00;93.50;;;;;;5072069;28;20590;-80
2023/04/19 10:59:34;;;;;;;4.23;3.63;;;15.00;93.90;;;;;;5072043;28;20233;-82
2023/04/19 11:02:26;;;;;;;4.40;3.80;;;15.00;94.20;;;;;;5072098;28;20248;-82
2023/04/19 11:04:52;;;;;;;5.53;3.83;;;14.90;94.70;;;;;;5069250;28;20189;-84
2023/04/19 11:07:20;;;;;;;4.13;3.80;;;14.80;95.10;;;;;;5077751;28;20191;-82
2023/04/19 11:09:47;;;;;;;6.37;4.03;;;14.60;94.90;;;;;;5082474;28;20176;-85
2023/04/19 11:12:17;;;;;;;4.20;3.80;;;15.70;96.30;;;;;;5085762;28;20836;-80
2023/04/19 11:14:52;;;;;;;4.73;3.43;;;14.20;97.40;;;;;;5081589;28;20176;-82
2023/04/19 11:17:26;;;;;;;3.60;3.30;;;14.20;96.70;;;;;;5074545;28;20159;-82
2023/04/19 11:20:13;;;;;;;3.67;3.40;;;14.10;97.50;;;;;;5084053;28;20186;-80
2023/04/19 11:22:41;;;;;;;3.77;3.30;;;14.30;98.60;;;;;;5078698;28;20186;-82
2023/04/19 11:25:18;;;;;;;3.40;3.20;;;14.40;99.60;;;;;;5078322;28;20195;-85
2023/04/19 11:27:46;;;;;;;4.17;3.80;;;14.50;99.80;;;;;;5072670;28;20232;-84
2023/04/19 11:30:15;;;;;;;5.67;5.13;;;14.50;99.90;;;;;;5072143;28;20252;-82
2023/04/19 11:32:51;;;;;;;5.70;4.80;;;14.40;99.90;;;;;;5072234;28;20174;-81
2023/04/19 11:35:22;;;;;;;6.07;4.53;;;14.80;99.90;;;;;;5072767;28;20224;-77
2023/04/19 11:37:48;;;;;;;5.73;4.93;;;14.20;99.90;;;;;;5072925;28;20194;-80
2023/04/19 11:40:15;;;;;;;4.43;4.03;;;14.20;99.90;;;;;;5071271;28;20656;-83
2023/04/19 11:42:41;;;;;;;4.60;4.20;;;14.20;99.90;;;;;;5072312;28;20653;-86
2023/04/19 11:45:08;;;;;;;5.27;4.40;;;14.20;99.90;;;;;;5071447;28;20309;-81
2023/04/19 11:47:34;;;;;;;6.27;4.80;;;14.10;99.90;;;;;;5073788;28;20308;-77
2023/04/19 11:50:32;;;;;;;4.43;4.13;;;14.00;99.90;;;;;;5074127;28;20273;-76
2023/04/19 11:52:58;;;;;;;6.23;5.63;;;14.10;99.90;;;;;;5073800;28;20541;-80
2023/04/19 11:55:25;;;;;;;5.47;4.97;;;13.90;99.90;;;;;;5073933;28;20657;-81
2023/04/19 11:57:51;;;;;;;5.90;5.27;;;13.90;99.90;;;;;;5075362;28;20210;-79
2023/04/19 12:00:27;;;;;;;5.57;5.07;;;14.00;99.90;;;;;;5076625;28;20175;-77
2023/04/19 12:02:53;;;;;;;5.80;5.30;;;14.00;99.90;;;;;;5080153;28;20613;-79
2023/04/19 12:05:19;;;;;;;5.67;5.10;;;14.00;99.90;;;;;;5075836;28;20211;-78
2023/04/19 12:08:04;;;;;;;5.90;5.40;;;14.00;99.90;;;;;;5075790;28;20163;-83
2023/04/19 12:10:31;;;;;;;6.10;5.50;;;14.10;99.90;;;;;;5076238;28;20704;-82
2023/04/19 12:12:57;;;;;;;6.10;5.60;;;14.10;99.90;;;;;;5074886;28;20171;-79
2023/04/19 12:15:39;;;;;;;7.23;6.13;;;14.20;99.90;;;;;;5073353;28;20175;-76
2023/04/19 12:18:05;;;;;;;5.27;4.80;;;14.30;99.90;;;;;;5074756;28;20160;-83
2023/04/19 12:20:35;;;;;;;8.30;5.13;;;14.50;99.90;;;;;;5074460;28;20187;-77
2023/04/19 12:23:02;;;;;;;5.17;4.67;;;14.70;99.90;;;;;;5074494;28;20176;-84
2023/04/19 12:25:32;;;;;;;6.63;4.77;;;15.00;99.90;;;;;;5074477;28;20635;-76
2023/04/19 12:28:00;;;;;;;6.30;5.40;;;15.10;99.90;;;;;;5074442;28;20172;-78
2023/04/19 12:30:26;;;;;;;6.57;5.80;;;15.30;99.90;;;;;;5073273;28;20179;-76
2023/04/19 12:32:55;;;;;;;6.90;6.30;;;15.50;99.90;;;;;;5074116;28;20233;-76
2023/04/19 12:35:21;;;;;;;6.50;5.90;;;15.60;99.90;;;;;;5074347;28;20171;-78
2023/04/19 12:37:48;;;;;;;9.13;6.57;;;15.60;99.90;;;;;;5057244;28;20186;-81
2023/04/19 12:40:14;;;;;;;8.27;6.10;;;15.60;99.90;;;;;;5075026;28;20589;-77
2023/04/19 12:42:40;;;;;;;6.23;5.63;;;15.60;99.90;;;;;;5078142;28;20269;-80
2023/04/19 12:45:06;;;;;;;7.80;5.83;;;15.80;99.90;;;;;;5073829;28;20176;-81
2023/04/19 12:47:32;;;;;;;8.90;6.57;;;15.90;99.90;;;;;;5074068;28;20184;-83